sensor_id;sensor_type;location;lat;lon;timestamp;temperature;humidity
70456;DHT22;57916;51.996;5.180;2023-10-08T00:00:26;22.30;71.00
70456;DHT22;57916;51.996;5.180;2023-10-08T00:03:13;22.30;71.00
70456;DHT22;57916;51.996;5.180;2023-10-08T00:05:41;22.20;70.90
70456;DHT22;57916;51.996;5.180;2023-10-08T00:08:08;22.20;71.00
70456;DHT22;57916;51.996;5.180;2023-10-08T00:10:37;22.20;71.10
70456;DHT22;57916;51.996;5.180;2023-10-08T00:13:07;22.20;71.20
70456;DHT22;57916;51.996;5.180;2023-10-08T00:15:36;22.20;71.20
70456;DHT22;57916;51.996;5.180;2023-10-08T00:18:04;22.20;71.20
70456;DHT22;57916;51.996;5.180;2023-10-08T00:20:37;22.10;71.20
70456;DHT22;57916;51.996;5.180;2023-10-08T00:23:30;22.20;72.00
70456;DHT22;57916;51.996;5.180;2023-10-08T00:25:57;22.10;71.20
70456;DHT22;57916;51.996;5.180;2023-10-08T00:28:24;22.10;71.30
70456;DHT22;57916;51.996;5.180;2023-10-08T00:30:55;22.10;71.50
70456;DHT22;57916;51.996;5.180;2023-10-08T00:33:22;22.10;71.60
70456;DHT22;57916;51.996;5.180;2023-10-08T00:35:49;22.10;71.70
70456;DHT22;57916;51.996;5.180;2023-10-08T00:38:16;22.10;71.60
70456;DHT22;57916;51.996;5.180;2023-10-08T00:40:47;22.10;71.70
70456;DHT22;57916;51.996;5.180;2023-10-08T00:43:33;22.10;71.70
70456;DHT22;57916;51.996;5.180;2023-10-08T00:46:04;22.10;71.60
70456;DHT22;57916;51.996;5.180;2023-10-08T00:48:33;22.10;71.60
70456;DHT22;57916;51.996;5.180;2023-10-08T00:51:03;22.10;71.50
70456;DHT22;57916;51.996;5.180;2023-10-08T00:54:05;22.20;71.50
70456;DHT22;57916;51.996;5.180;2023-10-08T00:56:37;22.20;71.40
70456;DHT22;57916;51.996;5.180;2023-10-08T00:59:26;22.20;71.30
70456;DHT22;57916;51.996;5.180;2023-10-08T01:01:53;22.20;71.30
70456;DHT22;57916;51.996;5.180;2023-10-08T01:04:31;22.20;71.30
70456;DHT22;57916;51.996;5.180;2023-10-08T01:07:04;22.10;71.50
70456;DHT22;57916;51.996;5.180;2023-10-08T01:09:40;22.10;71.60
70456;DHT22;57916;51.996;5.180;2023-10-08T01:12:14;22.10;71.60
70456;DHT22;57916;51.996;5.180;2023-10-08T01:14:43;22.10;71.80
70456;DHT22;57916;51.996;5.180;2023-10-08T01:17:10;22.10;71.70
70456;DHT22;57916;51.996;5.180;2023-10-08T01:19:46;22.10;71.70
70456;DHT22;57916;51.996;5.180;2023-10-08T01:22:35;22.10;71.70
70456;DHT22;57916;51.996;5.180;2023-10-08T01:25:05;22.10;71.60
70456;DHT22;57916;51.996;5.180;2023-10-08T01:27:32;22.10;71.50
70456;DHT22;57916;51.996;5.180;2023-10-08T01:30:04;22.20;71.50
70456;DHT22;57916;51.996;5.180;2023-10-08T01:32:45;22.10;71.40
70456;DHT22;57916;51.996;5.180;2023-10-08T01:35:12;22.20;71.40
70456;DHT22;57916;51.996;5.180;2023-10-08T01:37:58;22.10;71.40
70456;DHT22;57916;51.996;5.180;2023-10-08T01:40:26;22.10;71.50
70456;DHT22;57916;51.996;5.180;2023-10-08T01:42:57;22.10;71.50
70456;DHT22;57916;51.996;5.180;2023-10-08T01:45:26;22.00;71.70
70456;DHT22;57916;51.996;5.180;2023-10-08T01:47:53;22.10;71.60
70456;DHT22;57916;51.996;5.180;2023-10-08T01:50:22;22.10;71.80
70456;DHT22;57916;51.996;5.180;2023-10-08T01:52:49;22.10;71.70
70456;DHT22;57916;51.996;5.180;2023-10-08T01:55:16;22.10;71.60
70456;DHT22;57916;51.996;5.180;2023-10-08T01:57:47;22.10;71.60
70456;DHT22;57916;51.996;5.180;2023-10-08T02:00:15;22.10;71.40
70456;DHT22;57916;51.996;5.180;2023-10-08T02:02:47;22.10;71.40
70456;DHT22;57916;51.996;5.180;2023-10-08T02:05:14;22.10;71.40
70456;DHT22;57916;51.996;5.180;2023-10-08T02:07:42;22.10;71.30
70456;DHT22;57916;51.996;5.180;2023-10-08T02:10:12;22.10;71.30
70456;DHT22;57916;51.996;5.180;2023-10-08T02:12:41;22.00;71.30
70456;DHT22;57916;51.996;5.180;2023-10-08T02:15:08;22.00;71.30
70456;DHT22;57916;51.996;5.180;2023-10-08T02:17:38;22.00;71.30
70456;DHT22;57916;51.996;5.180;2023-10-08T02:20:06;22.00;71.30
70456;DHT22;57916;51.996;5.180;2023-10-08T02:22:33;22.00;71.40
70456;DHT22;57916;51.996;5.180;2023-10-08T02:25:01;22.00;71.60
70456;DHT22;57916;51.996;5.180;2023-10-08T02:27:29;22.00;71.90
70456;DHT22;57916;51.996;5.180;2023-10-08T02:29:55;22.00;72.00
70456;DHT22;57916;51.996;5.180;2023-10-08T02:32:23;21.90;72.00
70456;DHT22;57916;51.996;5.180;2023-10-08T02:34:50;21.90;72.30
70456;DHT22;57916;51.996;5.180;2023-10-08T02:37:17;21.80;71.90
70456;DHT22;57916;51.996;5.180;2023-10-08T02:39:46;21.80;72.10
70456;DHT22;57916;51.996;5.180;2023-10-08T02:42:13;21.70;72.20
70456;DHT22;57916;51.996;5.180;2023-10-08T02:44:41;21.70;72.30
70456;DHT22;57916;51.996;5.180;2023-10-08T02:47:12;21.60;72.30
70456;DHT22;57916;51.996;5.180;2023-10-08T02:49:40;21.50;72.20
70456;DHT22;57916;51.996;5.180;2023-10-08T02:52:08;21.40;72.50
70456;DHT22;57916;51.996;5.180;2023-10-08T02:54:38;21.40;72.50
70456;DHT22;57916;51.996;5.180;2023-10-08T02:57:05;21.40;72.70
70456;DHT22;57916;51.996;5.180;2023-10-08T02:59:40;21.40;72.60
70456;DHT22;57916;51.996;5.180;2023-10-08T03:02:11;21.40;72.80
70456;DHT22;57916;51.996;5.180;2023-10-08T03:04:51;21.40;73.00
70456;DHT22;57916;51.996;5.180;2023-10-08T03:07:20;21.50;73.10
70456;DHT22;57916;51.996;5.180;2023-10-08T03:09:59;21.50;73.00
70456;DHT22;57916;51.996;5.180;2023-10-08T03:12:46;21.50;73.00
70456;DHT22;57916;51.996;5.180;2023-10-08T03:15:15;21.50;73.00
70456;DHT22;57916;51.996;5.180;2023-10-08T03:18:00;21.50;73.00
70456;DHT22;57916;51.996;5.180;2023-10-08T03:20:37;21.50;73.10
70456;DHT22;57916;51.996;5.180;2023-10-08T03:23:06;21.50;73.00
70456;DHT22;57916;51.996;5.180;2023-10-08T03:25:39;21.50;73.10
70456;DHT22;57916;51.996;5.180;2023-10-08T03:28:09;21.50;72.90
70456;DHT22;57916;51.996;5.180;2023-10-08T03:30:39;21.50;73.00
70456;DHT22;57916;51.996;5.180;2023-10-08T03:33:23;21.50;73.10
70456;DHT22;57916;51.996;5.180;2023-10-08T03:35:51;21.50;73.90
70456;DHT22;57916;51.996;5.180;2023-10-08T03:38:24;21.50;73.10
70456;DHT22;57916;51.996;5.180;2023-10-08T03:41:11;21.50;73.00
70456;DHT22;57916;51.996;5.180;2023-10-08T03:43:43;21.50;73.00
70456;DHT22;57916;51.996;5.180;2023-10-08T03:46:20;21.50;73.20
70456;DHT22;57916;51.996;5.180;2023-10-08T03:48:49;21.50;73.00
70456;DHT22;57916;51.996;5.180;2023-10-08T03:51:18;21.50;72.90
70456;DHT22;57916;51.996;5.180;2023-10-08T03:53:49;21.60;73.10
70456;DHT22;57916;51.996;5.180;2023-10-08T03:56:26;21.60;72.80
70456;DHT22;57916;51.996;5.180;2023-10-08T03:58:57;21.60;72.60
70456;DHT22;57916;51.996;5.180;2023-10-08T04:01:27;21.60;72.50
70456;DHT22;57916;51.996;5.180;2023-10-08T04:03:59;21.60;72.40
70456;DHT22;57916;51.996;5.180;2023-10-08T04:06:27;21.70;72.50
70456;DHT22;57916;51.996;5.180;2023-10-08T04:08:59;21.70;72.50
70456;DHT22;57916;51.996;5.180;2023-10-08T04:11:36;21.70;72.60
70456;DHT22;57916;51.996;5.180;2023-10-08T04:14:10;21.70;72.60
70456;DHT22;57916;51.996;5.180;2023-10-08T04:16:37;21.60;72.50
70456;DHT22;57916;51.996;5.180;2023-10-08T04:19:04;21.60;72.50
70456;DHT22;57916;51.996;5.180;2023-10-08T04:21:31;21.60;72.50
70456;DHT22;57916;51.996;5.180;2023-10-08T04:24:01;21.60;72.50
70456;DHT22;57916;51.996;5.180;2023-10-08T04:26:30;21.60;72.70
70456;DHT22;57916;51.996;5.180;2023-10-08T04:29:01;21.60;72.80
70456;DHT22;57916;51.996;5.180;2023-10-08T04:31:33;21.60;72.80
70456;DHT22;57916;51.996;5.180;2023-10-08T04:34:05;21.50;72.80
70456;DHT22;57916;51.996;5.180;2023-10-08T04:36:45;21.50;72.90
70456;DHT22;57916;51.996;5.180;2023-10-08T04:39:15;21.50;72.70
70456;DHT22;57916;51.996;5.180;2023-10-08T04:41:43;21.50;72.70
70456;DHT22;57916;51.996;5.180;2023-10-08T04:44:10;21.50;72.70
70456;DHT22;57916;51.996;5.180;2023-10-08T04:46:42;21.50;72.90
70456;DHT22;57916;51.996;5.180;2023-10-08T04:49:15;21.50;72.80
70456;DHT22;57916;51.996;5.180;2023-10-08T04:51:56;21.40;73.00
70456;DHT22;57916;51.996;5.180;2023-10-08T04:54:25;21.30;73.10
70456;DHT22;57916;51.996;5.180;2023-10-08T04:57:00;21.30;73.20
70456;DHT22;57916;51.996;5.180;2023-10-08T04:59:29;21.20;73.30
70456;DHT22;57916;51.996;5.180;2023-10-08T05:02:04;21.20;73.60
70456;DHT22;57916;51.996;5.180;2023-10-08T05:04:50;21.30;73.80
70456;DHT22;57916;51.996;5.180;2023-10-08T05:07:33;21.30;73.50
70456;DHT22;57916;51.996;5.180;2023-10-08T05:10:15;21.30;73.50
70456;DHT22;57916;51.996;5.180;2023-10-08T05:12:52;21.30;73.50
70456;DHT22;57916;51.996;5.180;2023-10-08T05:15:40;21.30;73.40
70456;DHT22;57916;51.996;5.180;2023-10-08T05:18:29;21.30;73.30
70456;DHT22;57916;51.996;5.180;2023-10-08T05:21:16;21.30;73.30
70456;DHT22;57916;51.996;5.180;2023-10-08T05:24:05;21.30;73.20
70456;DHT22;57916;51.996;5.180;2023-10-08T05:26:38;21.30;73.30
70456;DHT22;57916;51.996;5.180;2023-10-08T05:29:09;21.30;73.70
70456;DHT22;57916;51.996;5.180;2023-10-08T05:31:55;21.30;73.70
70456;DHT22;57916;51.996;5.180;2023-10-08T05:34:40;21.30;73.80
70456;DHT22;57916;51.996;5.180;2023-10-08T05:37:28;21.20;74.40
70456;DHT22;57916;51.996;5.180;2023-10-08T05:40:08;21.20;74.70
70456;DHT22;57916;51.996;5.180;2023-10-08T05:42:45;21.20;74.70
70456;DHT22;57916;51.996;5.180;2023-10-08T05:45:16;21.20;74.60
70456;DHT22;57916;51.996;5.180;2023-10-08T05:47:58;21.20;74.40
70456;DHT22;57916;51.996;5.180;2023-10-08T05:50:42;21.20;74.10
70456;DHT22;57916;51.996;5.180;2023-10-08T05:53:23;21.10;73.70
70456;DHT22;57916;51.996;5.180;2023-10-08T05:56:11;21.10;73.70
70456;DHT22;57916;51.996;5.180;2023-10-08T05:58:55;21.00;73.60
70456;DHT22;57916;51.996;5.180;2023-10-08T06:01:41;21.00;73.60
70456;DHT22;57916;51.996;5.180;2023-10-08T06:04:09;20.90;73.30
70456;DHT22;57916;51.996;5.180;2023-10-08T06:07:08;20.80;73.40
70456;DHT22;57916;51.996;5.180;2023-10-08T06:09:49;20.80;73.50
70456;DHT22;57916;51.996;5.180;2023-10-08T06:12:39;20.70;73.50
70456;DHT22;57916;51.996;5.180;2023-10-08T06:15:16;20.60;73.50
70456;DHT22;57916;51.996;5.180;2023-10-08T06:17:54;20.60;73.30
70456;DHT22;57916;51.996;5.180;2023-10-08T06:20:34;20.50;73.50
70456;DHT22;57916;51.996;5.180;2023-10-08T06:23:01;20.40;73.80
70456;DHT22;57916;51.996;5.180;2023-10-08T06:25:30;20.30;73.80
70456;DHT22;57916;51.996;5.180;2023-10-08T06:27:57;20.30;74.00
70456;DHT22;57916;51.996;5.180;2023-10-08T06:30:29;20.30;73.90
70456;DHT22;57916;51.996;5.180;2023-10-08T06:32:56;20.20;73.90
70456;DHT22;57916;51.996;5.180;2023-10-08T06:35:24;20.20;73.70
70456;DHT22;57916;51.996;5.180;2023-10-08T06:37:52;20.00;73.90
70456;DHT22;57916;51.996;5.180;2023-10-08T06:40:21;20.00;74.40
70456;DHT22;57916;51.996;5.180;2023-10-08T06:43:04;19.90;74.50
70456;DHT22;57916;51.996;5.180;2023-10-08T06:45:48;19.80;74.90
70456;DHT22;57916;51.996;5.180;2023-10-08T06:48:21;19.70;74.90
70456;DHT22;57916;51.996;5.180;2023-10-08T06:50:52;19.60;74.50
70456;DHT22;57916;51.996;5.180;2023-10-08T06:53:24;19.50;74.40
70456;DHT22;57916;51.996;5.180;2023-10-08T06:55:51;19.40;74.10
70456;DHT22;57916;51.996;5.180;2023-10-08T06:58:25;19.20;73.80
70456;DHT22;57916;51.996;5.180;2023-10-08T07:00:52;19.00;73.80
70456;DHT22;57916;51.996;5.180;2023-10-08T07:03:22;18.80;74.20
70456;DHT22;57916;51.996;5.180;2023-10-08T07:05:50;18.70;74.60
70456;DHT22;57916;51.996;5.180;2023-10-08T07:08:32;18.50;74.50
70456;DHT22;57916;51.996;5.180;2023-10-08T07:11:01;18.50;75.00
70456;DHT22;57916;51.996;5.180;2023-10-08T07:13:33;18.50;74.90
70456;DHT22;57916;51.996;5.180;2023-10-08T07:16:03;18.40;74.60
70456;DHT22;57916;51.996;5.180;2023-10-08T07:18:31;18.40;74.30
70456;DHT22;57916;51.996;5.180;2023-10-08T07:21:01;18.30;74.40
70456;DHT22;57916;51.996;5.180;2023-10-08T07:23:39;18.20;74.50
70456;DHT22;57916;51.996;5.180;2023-10-08T07:26:27;18.10;74.70
70456;DHT22;57916;51.996;5.180;2023-10-08T07:29:04;18.10;75.00
70456;DHT22;57916;51.996;5.180;2023-10-08T07:31:39;18.10;75.00
70456;DHT22;57916;51.996;5.180;2023-10-08T07:34:09;18.10;74.90
70456;DHT22;57916;51.996;5.180;2023-10-08T07:36:43;18.00;75.00
70456;DHT22;57916;51.996;5.180;2023-10-08T07:39:11;18.10;75.20
70456;DHT22;57916;51.996;5.180;2023-10-08T07:42:05;18.10;75.40
70456;DHT22;57916;51.996;5.180;2023-10-08T07:44:32;18.10;75.00
70456;DHT22;57916;51.996;5.180;2023-10-08T07:47:03;18.20;74.90
70456;DHT22;57916;51.996;5.180;2023-10-08T07:49:32;18.20;75.00
70456;DHT22;57916;51.996;5.180;2023-10-08T07:51:59;18.20;75.00
70456;DHT22;57916;51.996;5.180;2023-10-08T07:54:26;18.20;74.70
70456;DHT22;57916;51.996;5.180;2023-10-08T07:57:04;18.30;74.50
70456;DHT22;57916;51.996;5.180;2023-10-08T07:59:39;18.20;74.20
70456;DHT22;57916;51.996;5.180;2023-10-08T08:02:18;18.20;74.60
70456;DHT22;57916;51.996;5.180;2023-10-08T08:04:51;18.20;74.70
70456;DHT22;57916;51.996;5.180;2023-10-08T08:07:18;18.20;74.60
70456;DHT22;57916;51.996;5.180;2023-10-08T08:09:47;18.20;75.30
70456;DHT22;57916;51.996;5.180;2023-10-08T08:12:36;18.30;74.40
70456;DHT22;57916;51.996;5.180;2023-10-08T08:15:04;18.20;74.10
70456;DHT22;57916;51.996;5.180;2023-10-08T08:17:44;18.20;74.30
70456;DHT22;57916;51.996;5.180;2023-10-08T08:20:15;18.20;74.40
70456;DHT22;57916;51.996;5.180;2023-10-08T08:22:45;18.20;74.60
70456;DHT22;57916;51.996;5.180;2023-10-08T08:25:21;18.20;74.70
70456;DHT22;57916;51.996;5.180;2023-10-08T08:28:01;18.20;75.10
70456;DHT22;57916;51.996;5.180;2023-10-08T08:30:28;18.30;75.00
70456;DHT22;57916;51.996;5.180;2023-10-08T08:32:55;18.40;75.20
70456;DHT22;57916;51.996;5.180;2023-10-08T08:35:23;18.50;74.70
70456;DHT22;57916;51.996;5.180;2023-10-08T08:37:51;18.50;74.30
70456;DHT22;57916;51.996;5.180;2023-10-08T08:40:18;18.60;74.00
70456;DHT22;57916;51.996;5.180;2023-10-08T08:42:47;18.60;73.70
70456;DHT22;57916;51.996;5.180;2023-10-08T08:45:22;18.50;73.70
70456;DHT22;57916;51.996;5.180;2023-10-08T08:47:52;18.40;74.00
70456;DHT22;57916;51.996;5.180;2023-10-08T08:50:19;18.40;74.00
70456;DHT22;57916;51.996;5.180;2023-10-08T08:52:48;18.30;74.20
70456;DHT22;57916;51.996;5.180;2023-10-08T08:55:15;18.30;74.50
70456;DHT22;57916;51.996;5.180;2023-10-08T08:57:45;18.40;75.00
70456;DHT22;57916;51.996;5.180;2023-10-08T09:00:14;18.40;74.60
70456;DHT22;57916;51.996;5.180;2023-10-08T09:02:41;18.40;74.60
70456;DHT22;57916;51.996;5.180;2023-10-08T09:05:11;18.40;74.60
70456;DHT22;57916;51.996;5.180;2023-10-08T09:07:55;18.40;74.70
70456;DHT22;57916;51.996;5.180;2023-10-08T09:10:24;18.40;74.50
70456;DHT22;57916;51.996;5.180;2023-10-08T09:12:58;18.40;74.60
70456;DHT22;57916;51.996;5.180;2023-10-08T09:15:28;18.40;74.60
70456;DHT22;57916;51.996;5.180;2023-10-08T09:17:56;18.50;74.70
70456;DHT22;57916;51.996;5.180;2023-10-08T09:20:23;18.50;74.40
70456;DHT22;57916;51.996;5.180;2023-10-08T09:25:44;18.70;73.50
70456;DHT22;57916;51.996;5.180;2023-10-08T09:28:11;18.70;73.20
70456;DHT22;57916;51.996;5.180;2023-10-08T09:30:41;18.60;73.30
70456;DHT22;57916;51.996;5.180;2023-10-08T09:33:12;18.60;72.80
70456;DHT22;57916;51.996;5.180;2023-10-08T09:35:40;18.70;72.80
70456;DHT22;57916;51.996;5.180;2023-10-08T09:38:08;18.70;72.50
70456;DHT22;57916;51.996;5.180;2023-10-08T09:40:42;18.70;72.50
70456;DHT22;57916;51.996;5.180;2023-10-08T09:43:11;18.80;72.80
70456;DHT22;57916;51.996;5.180;2023-10-08T09:45:42;18.90;72.60
70456;DHT22;57916;51.996;5.180;2023-10-08T09:48:16;18.90;71.90
70456;DHT22;57916;51.996;5.180;2023-10-08T09:50:43;19.00;71.80
70456;DHT22;57916;51.996;5.180;2023-10-08T09:53:13;19.00;71.50
70456;DHT22;57916;51.996;5.180;2023-10-08T09:55:47;19.00;71.50
70456;DHT22;57916;51.996;5.180;2023-10-08T09:58:16;19.00;71.60
70456;DHT22;57916;51.996;5.180;2023-10-08T10:00:44;18.90;71.80
70456;DHT22;57916;51.996;5.180;2023-10-08T10:03:12;19.00;72.10
70456;DHT22;57916;51.996;5.180;2023-10-08T10:05:42;19.00;72.50
70456;DHT22;57916;51.996;5.180;2023-10-08T10:08:10;19.00;71.80
70456;DHT22;57916;51.996;5.180;2023-10-08T10:10:38;19.00;71.60
70456;DHT22;57916;51.996;5.180;2023-10-08T10:13:06;19.00;71.80
70456;DHT22;57916;51.996;5.180;2023-10-08T10:15:37;19.00;71.90
70456;DHT22;57916;51.996;5.180;2023-10-08T10:18:16;19.10;72.20
70456;DHT22;57916;51.996;5.180;2023-10-08T10:20:46;19.10;71.90
70456;DHT22;57916;51.996;5.180;2023-10-08T10:31:49;19.30;71.50
70456;DHT22;57916;51.996;5.180;2023-10-08T10:34:27;19.20;71.40
70456;DHT22;57916;51.996;5.180;2023-10-08T10:36:58;19.30;71.90
70456;DHT22;57916;51.996;5.180;2023-10-08T10:39:27;19.30;72.00
70456;DHT22;57916;51.996;5.180;2023-10-08T10:41:58;19.40;72.20
70456;DHT22;57916;51.996;5.180;2023-10-08T10:44:29;19.40;71.70
70456;DHT22;57916;51.996;5.180;2023-10-08T10:46:57;19.40;71.60
70456;DHT22;57916;51.996;5.180;2023-10-08T10:49:49;19.40;71.70
70456;DHT22;57916;51.996;5.180;2023-10-08T10:52:28;19.30;72.60
70456;DHT22;57916;51.996;5.180;2023-10-08T10:55:04;19.30;72.20
70456;DHT22;57916;51.996;5.180;2023-10-08T10:57:44;19.30;72.20
70456;DHT22;57916;51.996;5.180;2023-10-08T11:00:11;19.30;72.20
70456;DHT22;57916;51.996;5.180;2023-10-08T11:02:57;19.30;72.20
70456;DHT22;57916;51.996;5.180;2023-10-08T11:05:30;19.30;72.70
70456;DHT22;57916;51.996;5.180;2023-10-08T11:08:00;19.30;72.80
70456;DHT22;57916;51.996;5.180;2023-10-08T11:10:37;19.30;72.90
70456;DHT22;57916;51.996;5.180;2023-10-08T11:13:13;19.30;73.20
70456;DHT22;57916;51.996;5.180;2023-10-08T11:15:44;19.30;73.00
70456;DHT22;57916;51.996;5.180;2023-10-08T11:18:18;19.40;72.90
70456;DHT22;57916;51.996;5.180;2023-10-08T11:20:47;19.40;72.60
70456;DHT22;57916;51.996;5.180;2023-10-08T11:23:39;19.40;72.20
70456;DHT22;57916;51.996;5.180;2023-10-08T11:26:08;19.40;72.00
70456;DHT22;57916;51.996;5.180;2023-10-08T11:28:37;19.30;72.30
70456;DHT22;57916;51.996;5.180;2023-10-08T11:31:16;19.30;72.70
70456;DHT22;57916;51.996;5.180;2023-10-08T11:33:47;19.30;72.80
70456;DHT22;57916;51.996;5.180;2023-10-08T11:36:23;19.30;72.80
70456;DHT22;57916;51.996;5.180;2023-10-08T11:39:12;19.40;72.80
70456;DHT22;57916;51.996;5.180;2023-10-08T11:44:22;19.50;72.00
70456;DHT22;57916;51.996;5.180;2023-10-08T11:46:50;19.40;72.20
70456;DHT22;57916;51.996;5.180;2023-10-08T11:49:23;19.40;72.00
70456;DHT22;57916;51.996;5.180;2023-10-08T11:51:52;19.50;71.80
70456;DHT22;57916;51.996;5.180;2023-10-08T11:54:19;19.50;71.80
70456;DHT22;57916;51.996;5.180;2023-10-08T11:56:46;19.50;71.40
70456;DHT22;57916;51.996;5.180;2023-10-08T11:59:14;19.50;71.60
70456;DHT22;57916;51.996;5.180;2023-10-08T12:01:41;19.60;71.20
70456;DHT22;57916;51.996;5.180;2023-10-08T12:04:10;19.60;71.10
70456;DHT22;57916;51.996;5.180;2023-10-08T12:06:40;19.60;70.80
70456;DHT22;57916;51.996;5.180;2023-10-08T12:09:14;19.70;70.80
70456;DHT22;57916;51.996;5.180;2023-10-08T12:11:41;19.70;70.10
70456;DHT22;57916;51.996;5.180;2023-10-08T12:14:09;19.80;70.10
70456;DHT22;57916;51.996;5.180;2023-10-08T12:16:38;19.80;69.70
70456;DHT22;57916;51.996;5.180;2023-10-08T12:19:06;19.80;69.80
70456;DHT22;57916;51.996;5.180;2023-10-08T12:21:43;19.90;69.60
70456;DHT22;57916;51.996;5.180;2023-10-08T12:24:13;19.90;69.10
70456;DHT22;57916;51.996;5.180;2023-10-08T12:26:41;20.00;69.10
70456;DHT22;57916;51.996;5.180;2023-10-08T12:29:13;20.00;68.60
70456;DHT22;57916;51.996;5.180;2023-10-08T12:31:48;20.00;68.30
70456;DHT22;57916;51.996;5.180;2023-10-08T12:34:15;20.00;68.30
70456;DHT22;57916;51.996;5.180;2023-10-08T12:36:43;20.00;68.10
70456;DHT22;57916;51.996;5.180;2023-10-08T12:39:12;20.10;68.80
70456;DHT22;57916;51.996;5.180;2023-10-08T12:41:43;20.20;68.60
70456;DHT22;57916;51.996;5.180;2023-10-08T12:44:11;20.20;68.30
70456;DHT22;57916;51.996;5.180;2023-10-08T12:46:39;20.20;67.50
70456;DHT22;57916;51.996;5.180;2023-10-08T12:49:10;20.20;67.90
70456;DHT22;57916;51.996;5.180;2023-10-08T12:51:37;20.20;68.40
70456;DHT22;57916;51.996;5.180;2023-10-08T12:54:08;20.20;68.50
70456;DHT22;57916;51.996;5.180;2023-10-08T12:56:38;20.30;68.10
70456;DHT22;57916;51.996;5.180;2023-10-08T12:59:12;20.30;67.80
70456;DHT22;57916;51.996;5.180;2023-10-08T13:01:47;20.30;67.70
70456;DHT22;57916;51.996;5.180;2023-10-08T13:04:18;20.30;67.50
70456;DHT22;57916;51.996;5.180;2023-10-08T13:06:54;20.40;67.70
70456;DHT22;57916;51.996;5.180;2023-10-08T13:09:27;20.40;68.00
70456;DHT22;57916;51.996;5.180;2023-10-08T13:11:58;20.40;67.80
70456;DHT22;57916;51.996;5.180;2023-10-08T13:14:26;20.50;67.50
70456;DHT22;57916;51.996;5.180;2023-10-08T13:16:53;20.50;67.70
70456;DHT22;57916;51.996;5.180;2023-10-08T13:19:21;20.50;67.50
70456;DHT22;57916;51.996;5.180;2023-10-08T13:21:50;20.50;67.30
70456;DHT22;57916;51.996;5.180;2023-10-08T13:24:19;20.50;67.40
70456;DHT22;57916;51.996;5.180;2023-10-08T13:26:51;20.40;68.40
70456;DHT22;57916;51.996;5.180;2023-10-08T13:29:18;20.40;68.10
70456;DHT22;57916;51.996;5.180;2023-10-08T13:31:46;20.40;68.30
70456;DHT22;57916;51.996;5.180;2023-10-08T13:34:13;20.50;68.60
70456;DHT22;57916;51.996;5.180;2023-10-08T13:36:43;20.50;68.60
70456;DHT22;57916;51.996;5.180;2023-10-08T13:39:14;20.60;68.50
70456;DHT22;57916;51.996;5.180;2023-10-08T13:41:46;20.70;68.20
70456;DHT22;57916;51.996;5.180;2023-10-08T13:44:16;20.70;68.20
70456;DHT22;57916;51.996;5.180;2023-10-08T13:46:43;20.70;68.00
70456;DHT22;57916;51.996;5.180;2023-10-08T13:49:16;20.70;68.00
70456;DHT22;57916;51.996;5.180;2023-10-08T13:51:44;20.70;68.10
70456;DHT22;57916;51.996;5.180;2023-10-08T13:54:13;20.80;68.30
70456;DHT22;57916;51.996;5.180;2023-10-08T13:56:42;20.80;67.90
70456;DHT22;57916;51.996;5.180;2023-10-08T13:59:15;20.80;67.50
70456;DHT22;57916;51.996;5.180;2023-10-08T14:01:44;20.80;67.70
70456;DHT22;57916;51.996;5.180;2023-10-08T14:04:19;20.80;67.40
70456;DHT22;57916;51.996;5.180;2023-10-08T14:06:48;20.80;67.60
70456;DHT22;57916;51.996;5.180;2023-10-08T14:09:20;20.80;67.80
70456;DHT22;57916;51.996;5.180;2023-10-08T14:11:49;20.80;68.10
70456;DHT22;57916;51.996;5.180;2023-10-08T14:14:20;20.80;68.00
70456;DHT22;57916;51.996;5.180;2023-10-08T14:16:51;20.80;68.00
70456;DHT22;57916;51.996;5.180;2023-10-08T14:19:26;20.80;67.80
70456;DHT22;57916;51.996;5.180;2023-10-08T14:22:17;20.80;67.90
70456;DHT22;57916;51.996;5.180;2023-10-08T14:24:46;20.80;68.20
70456;DHT22;57916;51.996;5.180;2023-10-08T14:27:13;20.80;68.20
70456;DHT22;57916;51.996;5.180;2023-10-08T14:29:43;20.80;68.50
70456;DHT22;57916;51.996;5.180;2023-10-08T14:32:19;20.90;68.00
70456;DHT22;57916;51.996;5.180;2023-10-08T14:34:46;20.80;68.10
70456;DHT22;57916;51.996;5.180;2023-10-08T14:37:14;20.90;68.00
70456;DHT22;57916;51.996;5.180;2023-10-08T14:40:00;20.90;68.00
70456;DHT22;57916;51.996;5.180;2023-10-08T14:42:45;20.80;68.40
70456;DHT22;57916;51.996;5.180;2023-10-08T14:45:27;20.80;68.20
70456;DHT22;57916;51.996;5.180;2023-10-08T14:47:55;20.80;68.50
70456;DHT22;57916;51.996;5.180;2023-10-08T14:50:23;20.80;68.80
70456;DHT22;57916;51.996;5.180;2023-10-08T14:52:54;20.80;68.70
70456;DHT22;57916;51.996;5.180;2023-10-08T14:55:22;20.80;68.70
70456;DHT22;57916;51.996;5.180;2023-10-08T14:57:50;20.90;68.80
70456;DHT22;57916;51.996;5.180;2023-10-08T15:00:21;20.90;68.70
70456;DHT22;57916;51.996;5.180;2023-10-08T15:02:54;20.80;68.60
70456;DHT22;57916;51.996;5.180;2023-10-08T15:05:22;20.90;69.00
70456;DHT22;57916;51.996;5.180;2023-10-08T15:07:52;20.90;69.20
70456;DHT22;57916;51.996;5.180;2023-10-08T15:10:20;21.10;69.30
70456;DHT22;57916;51.996;5.180;2023-10-08T15:12:49;21.10;68.40
70456;DHT22;57916;51.996;5.180;2023-10-08T15:15:18;21.10;68.50
70456;DHT22;57916;51.996;5.180;2023-10-08T15:17:47;21.20;69.00
70456;DHT22;57916;51.996;5.180;2023-10-08T15:20:16;21.20;68.10
70456;DHT22;57916;51.996;5.180;2023-10-08T15:22:47;21.10;67.90
70456;DHT22;57916;51.996;5.180;2023-10-08T15:25:16;21.10;67.90
70456;DHT22;57916;51.996;5.180;2023-10-08T15:27:46;21.10;68.20
70456;DHT22;57916;51.996;5.180;2023-10-08T15:30:18;21.10;68.30
70456;DHT22;57916;51.996;5.180;2023-10-08T15:32:49;21.10;69.60
70456;DHT22;57916;51.996;5.180;2023-10-08T15:35:18;21.20;68.50
70456;DHT22;57916;51.996;5.180;2023-10-08T15:37:51;21.10;68.40
70456;DHT22;57916;51.996;5.180;2023-10-08T15:40:19;21.10;68.50
70456;DHT22;57916;51.996;5.180;2023-10-08T15:42:54;21.10;68.30
70456;DHT22;57916;51.996;5.180;2023-10-08T15:45:23;21.00;68.30
70456;DHT22;57916;51.996;5.180;2023-10-08T15:47:51;21.00;68.60
70456;DHT22;57916;51.996;5.180;2023-10-08T15:50:19;20.90;68.80
70456;DHT22;57916;51.996;5.180;2023-10-08T15:52:54;20.90;69.00
70456;DHT22;57916;51.996;5.180;2023-10-08T15:55:23;21.00;69.30
70456;DHT22;57916;51.996;5.180;2023-10-08T15:57:51;20.90;69.10
70456;DHT22;57916;51.996;5.180;2023-10-08T16:00:18;20.90;69.50
70456;DHT22;57916;51.996;5.180;2023-10-08T16:02:46;20.90;69.70
70456;DHT22;57916;51.996;5.180;2023-10-08T16:05:14;20.90;69.50
70456;DHT22;57916;51.996;5.180;2023-10-08T16:07:43;20.90;69.50
70456;DHT22;57916;51.996;5.180;2023-10-08T16:10:10;20.90;69.40
70456;DHT22;57916;51.996;5.180;2023-10-08T16:12:37;20.80;69.50
70456;DHT22;57916;51.996;5.180;2023-10-08T16:15:05;20.80;69.90